Clay, West Virginia
Current Conditions -  °F | °C
As of 6:54 AM on Sunday 23 Nov 2014 (Local Time) from KCRW Reporting Station
Broken Clouds Broken Clouds  
Wind Chill: 39°   Ceiling: 5500
Heat Index: 39°   Visibility: 10mi
Dew Point: 30°   Wind: 3mph
Humidity: 70%   Direction: 90°E
Pressure: 30.09"   Gusts: NA
Location:  38.46°N, 81.09°W
Report Text: KCRW 231154Z 09003KT 10SM BKN055 BKN110 04/M01 A3009 RMK AO2 SLP191 T00391011 10050 20033 58008
Loading
Personal Weather Stations






























Interactive Weather Map New forecast layout! Learn more

10-Day Weather Forecast

Advertisements
Track Severe Weather on mobile